Time;durP1;ratioP1;P1;durP2;ratioP2;P2;SDS_P1;SDS_P2;PMS_P1;PMS_P2;Temp;Humidity;BMP_temperature;BMP_pressure;BME280_temperature;BME280_humidity;BME280_pressure;Samples;Min_cycle;Max_cycle;Signal;HPM_P1;HPM_P2
2023/09/21 00:00:57;;;;;;;5.40;2.87;;;17.00;99.90;;;;;;4990506;28;20989;-52
2023/09/21 00:03:24;;;;;;;8.70;3.50;;;17.00;99.90;;;;;;4989518;28;20472;-54
2023/09/21 00:05:54;;;;;;;4.20;2.97;;;17.00;99.90;;;;;;4990369;28;20557;-52
2023/09/21 00:08:23;;;;;;;5.57;3.03;;;17.10;99.90;;;;;;4992160;28;20452;-52
2023/09/21 00:10:50;;;;;;;4.50;3.77;;;17.00;99.90;;;;;;4989595;28;20952;-52
2023/09/21 00:13:17;;;;;;;7.20;2.77;;;17.00;99.90;;;;;;4989852;28;20542;-53
2023/09/21 00:15:44;;;;;;;7.20;3.00;;;17.00;99.90;;;;;;4991437;28;20912;-52
2023/09/21 00:18:10;;;;;;;4.93;2.67;;;16.90;99.90;;;;;;4988162;28;20460;-52
2023/09/21 00:20:42;;;;;;;3.53;2.93;;;16.90;99.90;;;;;;4988103;28;20484;-51
2023/09/21 00:23:09;;;;;;;6.70;3.00;;;16.80;99.90;;;;;;4986485;28;20572;-52
2023/09/21 00:25:38;;;;;;;5.70;2.83;;;16.80;99.90;;;;;;4989276;28;20452;-52
2023/09/21 00:28:07;;;;;;;2.90;2.30;;;16.80;99.90;;;;;;4989686;28;20489;-52
2023/09/21 00:30:35;;;;;;;11.00;3.30;;;16.80;99.90;;;;;;4986839;28;21005;-53
2023/09/21 00:33:02;;;;;;;5.10;2.60;;;16.80;99.90;;;;;;4995986;28;20490;-53
2023/09/21 00:35:29;;;;;;;3.93;2.60;;;16.80;99.90;;;;;;4992027;28;20472;-53
2023/09/21 00:37:56;;;;;;;3.43;3.13;;;16.80;99.90;;;;;;4991051;28;20464;-52
2023/09/21 00:40:24;;;;;;;3.00;2.57;;;16.80;99.90;;;;;;4978642;28;20492;-52
2023/09/21 00:42:52;;;;;;;6.43;2.80;;;16.80;99.90;;;;;;4988932;28;20475;-52
2023/09/21 00:45:20;;;;;;;4.30;2.53;;;16.80;99.90;;;;;;4988096;28;20461;-52
2023/09/21 00:47:50;;;;;;;4.27;2.30;;;16.80;99.90;;;;;;4984308;28;20881;-52
2023/09/21 00:50:21;;;;;;;4.00;2.67;;;16.70;99.90;;;;;;4992327;28;20484;-52
2023/09/21 00:52:51;;;;;;;4.27;2.77;;;16.70;99.90;;;;;;5002547;28;20467;-51
2023/09/21 00:55:23;;;;;;;2.67;2.43;;;16.70;99.90;;;;;;4992333;28;20457;-53
2023/09/21 00:57:55;;;;;;;6.10;2.57;;;16.70;99.90;;;;;;4989148;28;20826;-53
2023/09/21 01:00:25;;;;;;;4.97;2.60;;;16.70;99.90;;;;;;4988369;28;20488;-53
2023/09/21 01:02:53;;;;;;;6.07;2.30;;;16.60;99.90;;;;;;4987997;28;21837;-54
2023/09/21 01:05:21;;;;;;;17.33;2.70;;;16.60;99.90;;;;;;4991639;28;20452;-52
2023/09/21 01:07:48;;;;;;;8.40;2.67;;;16.60;99.90;;;;;;5002962;28;20483;-51
2023/09/21 01:10:19;;;;;;;3.07;2.60;;;16.60;99.90;;;;;;5001934;28;20487;-52
2023/09/21 01:12:50;;;;;;;5.70;2.47;;;16.50;99.90;;;;;;4997727;28;20969;-53
2023/09/21 01:15:20;;;;;;;5.10;2.30;;;16.50;99.90;;;;;;4992972;28;20464;-52
2023/09/21 01:17:47;;;;;;;8.53;3.20;;;16.40;99.90;;;;;;4997353;28;20510;-53
2023/09/21 01:20:17;;;;;;;9.93;3.27;;;16.40;99.90;;;;;;5006415;28;20471;-53
2023/09/21 01:22:49;;;;;;;8.17;3.00;;;16.40;99.90;;;;;;5000208;28;20954;-52
2023/09/21 01:25:17;;;;;;;2.93;2.53;;;16.30;99.90;;;;;;4999522;28;20512;-52
2023/09/21 01:27:44;;;;;;;4.67;2.80;;;16.30;99.90;;;;;;4993768;28;20515;-52
2023/09/21 01:30:12;;;;;;;7.07;2.60;;;16.20;99.90;;;;;;5002516;28;20484;-53
2023/09/21 01:32:39;;;;;;;11.07;3.10;;;16.20;99.90;;;;;;4998332;28;20854;-52
2023/09/21 01:35:09;;;;;;;2.70;2.50;;;16.20;99.90;;;;;;4999900;28;20490;-53
2023/09/21 01:37:36;;;;;;;3.40;2.50;;;16.20;99.90;;;;;;4991379;28;20543;-53
2023/09/21 01:40:13;;;;;;;5.73;2.50;;;16.20;99.90;;;;;;4999824;28;20500;-53
2023/09/21 01:42:41;;;;;;;4.00;2.70;;;16.20;99.90;;;;;;5002053;28;21000;-53
2023/09/21 01:45:12;;;;;;;4.73;2.87;;;16.10;99.90;;;;;;4995731;28;20873;-52
2023/09/21 01:47:38;;;;;;;4.73;2.20;;;16.20;99.90;;;;;;4999840;28;20477;-53
2023/09/21 01:50:10;;;;;;;3.70;2.77;;;16.10;99.90;;;;;;4999491;28;20484;-53
2023/09/21 01:52:36;;;;;;;5.60;2.50;;;16.10;99.90;;;;;;4992952;28;20457;-52
2023/09/21 01:55:07;;;;;;;11.53;2.60;;;16.10;99.90;;;;;;4996328;28;20515;-52
2023/09/21 01:57:34;;;;;;;3.30;2.20;;;16.00;99.90;;;;;;4997868;28;20468;-53
2023/09/21 02:00:09;;;;;;;5.07;2.63;;;16.00;99.90;;;;;;5001307;28;20657;-54
2023/09/21 02:02:35;;;;;;;6.70;2.60;;;16.00;99.90;;;;;;4997011;28;20481;-54
2023/09/21 02:05:03;;;;;;;3.67;2.30;;;15.90;99.90;;;;;;4996037;28;20467;-52
2023/09/21 02:07:30;;;;;;;3.87;2.83;;;15.90;99.90;;;;;;4997543;28;21002;-53
2023/09/21 02:09:56;;;;;;;5.23;2.07;;;15.80;99.90;;;;;;5000684;28;20604;-53
2023/09/21 02:12:25;;;;;;;4.77;2.60;;;15.80;99.90;;;;;;4999010;28;21102;-53
2023/09/21 02:14:51;;;;;;;6.03;2.83;;;15.70;99.90;;;;;;4986927;28;20503;-54
2023/09/21 02:17:24;;;;;;;3.87;2.50;;;15.80;99.90;;;;;;4999144;28;20965;-53
2023/09/21 02:19:50;;;;;;;3.43;2.40;;;15.70;99.90;;;;;;4999684;28;20475;-52
2023/09/21 02:22:20;;;;;;;4.43;3.37;;;15.60;99.90;;;;;;4994614;28;20522;-52
2023/09/21 02:24:47;;;;;;;3.43;3.13;;;15.60;99.90;;;;;;4998731;28;20468;-53
2023/09/21 02:27:15;;;;;;;3.43;2.10;;;15.60;99.90;;;;;;4988836;28;20486;-52
2023/09/21 02:29:41;;;;;;;3.20;2.90;;;15.50;99.90;;;;;;4992647;28;20831;-52
2023/09/21 02:32:10;;;;;;;6.20;2.53;;;15.50;99.90;;;;;;5001032;28;20458;-53
2023/09/21 02:34:38;;;;;;;5.17;2.77;;;15.50;99.90;;;;;;5003755;28;20201;-52
2023/09/21 02:37:06;;;;;;;3.43;2.93;;;15.50;99.90;;;;;;4989889;28;20456;-52
2023/09/21 02:39:33;;;;;;;3.63;2.47;;;15.50;99.90;;;;;;4991534;28;20554;-54
2023/09/21 02:42:00;;;;;;;2.97;2.40;;;15.40;99.90;;;;;;5002005;28;20471;-52
2023/09/21 02:44:27;;;;;;;5.43;2.63;;;15.40;99.90;;;;;;4991682;28;20927;-51
2023/09/21 02:46:54;;;;;;;2.40;2.30;;;15.40;99.90;;;;;;4999529;28;20881;-52
2023/09/21 02:49:21;;;;;;;3.10;2.70;;;15.30;99.90;;;;;;4994939;28;20484;-51
2023/09/21 02:51:49;;;;;;;2.73;2.43;;;15.30;99.90;;;;;;4999663;28;20815;-51
2023/09/21 02:54:15;;;;;;;2.27;2.07;;;15.30;99.90;;;;;;4990793;28;20496;-52
2023/09/21 02:56:43;;;;;;;3.37;3.07;;;15.30;99.90;;;;;;4993485;28;20924;-52
2023/09/21 02:59:13;;;;;;;3.53;2.67;;;15.30;99.90;;;;;;4999973;28;20220;-53
2023/09/21 03:01:40;;;;;;;2.53;2.33;;;15.30;99.90;;;;;;4990680;28;20552;-54
2023/09/21 03:04:07;;;;;;;5.13;2.43;;;15.20;99.90;;;;;;5001904;28;20479;-55
2023/09/21 03:06:35;;;;;;;2.40;2.17;;;15.20;98.60;;;;;;4990989;28;20512;-53
2023/09/21 03:09:05;;;;;;;2.83;2.40;;;15.20;97.50;;;;;;4984578;28;20617;-54
2023/09/21 03:11:31;;;;;;;3.00;2.63;;;15.20;97.30;;;;;;4991205;28;20564;-54
2023/09/21 03:13:58;;;;;;;2.40;2.20;;;15.20;95.00;;;;;;4992279;28;20877;-53
2023/09/21 03:16:25;;;;;;;4.57;3.07;;;15.20;94.40;;;;;;4996429;28;20495;-53
2023/09/21 03:18:51;;;;;;;3.43;2.23;;;15.20;95.60;;;;;;4994209;28;21131;-54
2023/09/21 03:21:18;;;;;;;3.20;2.67;;;15.20;95.50;;;;;;5002814;28;20823;-53
2023/09/21 03:23:46;;;;;;;7.70;3.20;;;15.20;96.10;;;;;;4995164;28;20453;-52
2023/09/21 03:26:15;;;;;;;6.63;2.60;;;15.20;96.60;;;;;;4996895;28;20503;-54
2023/09/21 03:28:41;;;;;;;5.80;2.40;;;15.20;97.90;;;;;;4997884;28;20481;-54
2023/09/21 03:31:08;;;;;;;2.43;2.30;;;15.20;96.00;;;;;;4992122;28;20461;-55
2023/09/21 03:33:34;;;;;;;5.03;2.90;;;15.20;96.00;;;;;;4993532;28;20456;-53
2023/09/21 03:36:02;;;;;;;3.37;2.67;;;15.20;96.40;;;;;;4998582;28;20542;-53
2023/09/21 03:38:29;;;;;;;6.37;2.97;;;15.10;95.70;;;;;;4990805;28;20559;-54
2023/09/21 03:40:57;;;;;;;6.57;2.83;;;15.10;95.70;;;;;;4995123;28;20480;-52
2023/09/21 03:43:25;;;;;;;3.03;2.83;;;15.10;93.80;;;;;;4991387;28;20507;-52
2023/09/21 03:45:52;;;;;;;2.53;2.33;;;15.00;92.90;;;;;;4997897;28;20457;-52
2023/09/21 03:48:19;;;;;;;3.20;2.90;;;15.00;92.60;;;;;;5000996;28;20488;-53
2023/09/21 03:50:47;;;;;;;3.90;3.00;;;15.00;91.80;;;;;;4994623;28;20508;-55
2023/09/21 03:53:13;;;;;;;4.13;2.80;;;15.00;92.70;;;;;;4997002;28;20487;-54
2023/09/21 03:55:41;;;;;;;3.97;2.70;;;15.00;91.90;;;;;;4996214;28;20518;-53
2023/09/21 03:58:08;;;;;;;7.33;2.90;;;15.00;91.70;;;;;;4992102;28;20839;-54
2023/09/21 04:00:37;;;;;;;4.10;2.53;;;15.00;91.60;;;;;;4991964;28;20492;-54
2023/09/21 04:03:06;;;;;;;6.00;3.10;;;15.00;91.70;;;;;;4999230;28;20903;-52
2023/09/21 04:05:35;;;;;;;4.10;2.60;;;15.00;91.20;;;;;;4994973;28;20829;-52
2023/09/21 04:08:02;;;;;;;3.67;2.30;;;15.00;92.40;;;;;;4991215;28;20500;-52
2023/09/21 04:10:30;;;;;;;6.53;3.37;;;15.00;93.40;;;;;;4992830;28;20527;-54
2023/09/21 04:12:57;;;;;;;7.97;2.93;;;15.00;92.60;;;;;;4998995;28;20468;-53
2023/09/21 04:15:25;;;;;;;4.37;2.73;;;15.00;92.90;;;;;;4986631;28;21056;-53
2023/09/21 04:17:53;;;;;;;3.67;3.20;;;15.00;90.80;;;;;;4988048;28;20453;-52
2023/09/21 04:20:21;;;;;;;4.07;2.70;;;15.00;92.50;;;;;;4988164;28;20531;-52
2023/09/21 04:22:49;;;;;;;4.07;2.70;;;15.00;92.80;;;;;;4983704;28;21197;-53
2023/09/21 04:25:16;;;;;;;5.40;2.93;;;15.10;92.20;;;;;;4989316;28;20974;-54
2023/09/21 04:27:45;;;;;;;4.03;3.30;;;15.10;94.10;;;;;;4991678;28;20481;-55
2023/09/21 04:30:14;;;;;;;3.40;3.03;;;15.10;95.00;;;;;;4989292;28;20496;-52
2023/09/21 04:32:41;;;;;;;6.37;3.13;;;15.00;96.60;;;;;;4987335;28;20508;-52
2023/09/21 04:35:09;;;;;;;3.33;2.30;;;15.00;94.90;;;;;;4988495;28;20465;-53
2023/09/21 04:37:38;;;;;;;4.03;3.10;;;15.00;93.80;;;;;;4987101;28;20449;-54
2023/09/21 04:40:06;;;;;;;4.70;2.70;;;14.90;93.60;;;;;;4990023;28;20885;-53
2023/09/21 04:42:35;;;;;;;2.57;2.20;;;14.90;92.50;;;;;;4981363;28;20544;-52
2023/09/21 04:45:03;;;;;;;5.27;3.43;;;14.90;91.70;;;;;;4993193;28;20511;-53
2023/09/21 04:47:29;;;;;;;3.00;2.80;;;14.90;91.20;;;;;;4985316;28;20516;-51
2023/09/21 04:49:56;;;;;;;6.17;3.20;;;14.90;91.60;;;;;;4986856;28;20516;-52
2023/09/21 04:52:25;;;;;;;3.17;2.57;;;14.80;91.10;;;;;;4990604;28;20460;-52
2023/09/21 04:54:52;;;;;;;6.37;2.80;;;14.90;89.70;;;;;;4996990;28;20460;-51
2023/09/21 04:57:19;;;;;;;2.67;2.47;;;14.90;91.80;;;;;;4989450;28;20460;-52
2023/09/21 04:59:46;;;;;;;4.03;3.20;;;14.80;89.30;;;;;;4986626;28;20562;-52
2023/09/21 05:02:13;;;;;;;4.23;2.77;;;14.80;89.40;;;;;;4997503;28;20931;-52
2023/09/21 05:04:39;;;;;;;4.90;3.07;;;14.80;88.60;;;;;;4982982;28;20512;-54
2023/09/21 05:07:06;;;;;;;4.73;2.80;;;14.80;88.90;;;;;;4987908;28;20896;-54
2023/09/21 05:09:34;;;;;;;4.70;2.90;;;14.80;88.10;;;;;;4986344;28;20494;-51
2023/09/21 05:12:03;;;;;;;3.00;2.70;;;14.80;89.10;;;;;;4993160;28;20461;-52
2023/09/21 05:14:29;;;;;;;4.63;3.47;;;14.80;87.90;;;;;;4984246;28;20465;-53
2023/09/21 05:16:58;;;;;;;6.97;2.90;;;14.80;88.80;;;;;;4979078;28;20862;-52
2023/09/21 05:19:25;;;;;;;3.00;2.70;;;14.80;89.10;;;;;;4993664;28;20511;-51
2023/09/21 05:21:56;;;;;;;2.63;2.43;;;14.90;90.00;;;;;;4984932;28;21029;-52
2023/09/21 05:24:23;;;;;;;4.47;2.87;;;14.90;91.10;;;;;;4991035;28;20468;-52
2023/09/21 05:26:52;;;;;;;4.70;3.03;;;14.90;89.40;;;;;;4988838;28;20465;-52
2023/09/21 05:29:19;;;;;;;5.40;3.20;;;14.90;88.30;;;;;;4997048;28;20524;-53
2023/09/21 05:31:46;;;;;;;2.67;2.47;;;14.90;87.40;;;;;;4988746;28;20527;-54
2023/09/21 05:34:12;;;;;;;8.63;2.73;;;14.80;85.80;;;;;;4990265;28;20482;-53
2023/09/21 05:36:39;;;;;;;3.40;3.10;;;14.80;87.40;;;;;;4982840;28;20460;-52
2023/09/21 05:39:08;;;;;;;5.73;3.00;;;14.90;87.10;;;;;;4987331;28;20484;-52
2023/09/21 05:41:34;;;;;;;3.65;2.70;;;14.90;86.50;;;;;;4998759;28;20483;-52
2023/09/21 05:44:02;;;;;;;4.07;3.00;;;15.00;86.00;;;;;;4981246;28;20198;-51
2023/09/21 05:46:29;;;;;;;2.80;2.53;;;15.10;88.00;;;;;;4993047;28;20467;-53
2023/09/21 05:48:55;;;;;;;6.57;3.23;;;15.10;92.20;;;;;;4996605;28;20535;-52
2023/09/21 05:51:22;;;;;;;5.17;3.20;;;15.20;94.70;;;;;;4987469;28;20463;-52
2023/09/21 05:53:49;;;;;;;5.13;2.83;;;15.30;97.30;;;;;;4979604;28;21032;-52
2023/09/21 05:56:17;;;;;;;6.07;3.00;;;15.30;99.30;;;;;;4988343;28;20460;-52
2023/09/21 05:58:43;;;;;;;6.20;2.60;;;15.30;99.90;;;;;;4992193;28;20448;-51
2023/09/21 06:01:12;;;;;;;4.00;3.57;;;15.40;99.90;;;;;;4994571;28;20444;-52
2023/09/21 06:03:38;;;;;;;5.07;3.43;;;15.40;99.90;;;;;;4990669;28;20512;-52
2023/09/21 06:06:07;;;;;;;3.80;3.07;;;15.40;97.80;;;;;;4995060;28;20500;-53
2023/09/21 06:08:33;;;;;;;7.40;3.30;;;15.40;99.80;;;;;;4991715;28;20567;-53
2023/09/21 06:11:02;;;;;;;9.57;4.00;;;15.40;98.60;;;;;;4994199;28;20469;-53
2023/09/21 06:13:29;;;;;;;3.13;2.43;;;15.50;99.90;;;;;;4990278;28;20840;-53
2023/09/21 06:15:55;;;;;;;7.17;3.17;;;15.60;99.90;;;;;;4993873;28;20487;-52
2023/09/21 06:18:23;;;;;;;4.00;2.93;;;15.60;99.90;;;;;;5007005;28;20463;-52
2023/09/21 06:20:50;;;;;;;3.67;3.17;;;15.70;99.90;;;;;;4989842;28;21002;-51
2023/09/21 06:23:17;;;;;;;5.80;3.13;;;15.70;99.90;;;;;;4991570;28;20975;-52
2023/09/21 06:25:44;;;;;;;15.03;3.13;;;15.80;99.90;;;;;;4992900;28;20506;-53
2023/09/21 06:28:11;;;;;;;13.40;3.27;;;15.80;99.90;;;;;;4996021;28;20462;-52
2023/09/21 06:30:38;;;;;;;10.93;3.53;;;15.90;99.90;;;;;;5001699;28;20490;-52
2023/09/21 06:33:05;;;;;;;5.83;3.80;;;16.00;99.90;;;;;;4996656;28;20878;-51
2023/09/21 06:35:33;;;;;;;3.33;3.03;;;16.00;99.90;;;;;;4992750;28;20461;-52
2023/09/21 06:38:00;;;;;;;9.10;3.30;;;16.10;99.90;;;;;;4999504;28;20460;-52
2023/09/21 06:40:26;;;;;;;3.70;3.10;;;16.10;99.90;;;;;;4995018;28;20515;-55
2023/09/21 06:42:53;;;;;;;5.63;3.43;;;16.20;99.90;;;;;;5001117;28;21081;-54
2023/09/21 06:45:20;;;;;;;6.50;3.50;;;16.30;99.90;;;;;;5006061;28;20461;-53
2023/09/21 06:47:47;;;;;;;3.73;2.87;;;16.30;99.90;;;;;;5002204;28;20898;-51
2023/09/21 06:50:14;;;;;;;10.47;4.43;;;16.50;99.90;;;;;;4995756;28;20485;-52
2023/09/21 06:52:42;;;;;;;9.37;3.33;;;16.50;99.90;;;;;;5002627;28;20509;-52
2023/09/21 06:55:10;;;;;;;6.30;3.70;;;16.60;99.90;;;;;;4992181;28;20506;-53
2023/09/21 06:57:36;;;;;;;5.07;2.67;;;16.70;99.90;;;;;;4993436;28;20519;-53
2023/09/21 07:00:06;;;;;;;8.67;3.50;;;16.80;99.90;;;;;;5001824;28;20526;-52
2023/09/21 07:02:33;;;;;;;7.80;3.87;;;16.90;99.90;;;;;;5001382;28;20467;-52
2023/09/21 07:04:59;;;;;;;5.33;3.40;;;17.00;99.90;;;;;;4988563;28;20452;-52
2023/09/21 07:07:26;;;;;;;4.33;2.70;;;17.10;99.90;;;;;;4988619;28;20508;-51
2023/09/21 07:09:54;;;;;;;6.83;3.60;;;17.20;99.90;;;;;;5000919;28;20541;-53
2023/09/21 07:12:21;;;;;;;10.70;3.90;;;17.40;99.90;;;;;;4992001;28;20939;-53
2023/09/21 07:14:49;;;;;;;8.73;4.37;;;17.50;99.90;;;;;;4994626;28;20493;-51
2023/09/21 07:17:16;;;;;;;5.30;4.10;;;17.60;99.90;;;;;;4994977;28;22211;-52
2023/09/21 07:19:43;;;;;;;5.33;3.20;;;17.70;99.90;;;;;;4990989;28;20475;-52
2023/09/21 07:22:10;;;;;;;7.20;2.90;;;17.70;99.90;;;;;;4988488;28;20548;-52
2023/09/21 07:24:37;;;;;;;6.77;3.67;;;17.60;99.90;;;;;;4987360;28;20461;-52
2023/09/21 07:27:06;;;;;;;9.23;3.60;;;17.60;99.90;;;;;;4997530;28;20530;-52
2023/09/21 07:29:33;;;;;;;15.00;3.63;;;17.50;99.90;;;;;;4999865;28;20489;-52
2023/09/21 07:32:00;;;;;;;9.07;3.00;;;17.50;99.90;;;;;;4987528;28;20570;-52
2023/09/21 07:34:27;;;;;;;5.90;3.77;;;17.50;99.90;;;;;;4989076;28;20546;-52
2023/09/21 07:36:53;;;;;;;4.83;3.03;;;17.60;99.90;;;;;;4986640;28;20456;-53
2023/09/21 07:39:20;;;;;;;5.90;3.37;;;17.60;99.90;;;;;;4985414;28;20491;-52
2023/09/21 07:41:48;;;;;;;5.33;3.47;;;17.70;99.90;;;;;;4984954;28;20468;-51
2023/09/21 07:44:17;;;;;;;16.13;3.50;;;17.70;99.90;;;;;;4991417;28;20746;-52
2023/09/21 07:46:43;;;;;;;8.30;3.70;;;17.80;99.90;;;;;;4985891;28;20977;-53
2023/09/21 07:49:10;;;;;;;6.30;3.27;;;17.90;99.90;;;;;;4986488;28;21064;-52
2023/09/21 07:51:36;;;;;;;7.33;3.37;;;18.10;99.90;;;;;;4998435;28;20459;-52
2023/09/21 07:54:03;;;;;;;6.77;3.83;;;18.40;99.90;;;;;;4983227;28;20465;-52
2023/09/21 07:56:31;;;;;;;7.77;3.70;;;18.60;99.90;;;;;;4997716;28;20467;-52
2023/09/21 07:58:58;;;;;;;14.13;5.00;;;18.80;99.90;;;;;;4989693;28;20453;-51
2023/09/21 08:01:26;;;;;;;8.00;4.13;;;18.90;99.90;;;;;;4995192;28;20433;-52
2023/09/21 08:03:54;;;;;;;7.27;3.80;;;19.10;99.90;;;;;;4983633;28;20477;-51
2023/09/21 08:06:22;;;;;;;7.10;3.30;;;19.20;99.90;;;;;;4987852;28;21083;-51
2023/09/21 08:08:50;;;;;;;4.47;2.70;;;19.40;99.90;;;;;;4983762;28;20483;-51
2023/09/21 08:11:17;;;;;;;18.90;3.23;;;19.60;99.90;;;;;;4993215;28;20562;-53
2023/09/21 08:13:44;;;;;;;5.80;2.80;;;19.80;99.90;;;;;;4990608;28;20943;-53
2023/09/21 08:16:11;;;;;;;21.53;3.60;;;20.10;22.60;;;;;;4991958;28;20448;-52
2023/09/21 08:18:39;;;;;;;9.87;2.97;;;20.20;25.60;;;;;;4992400;28;20492;-52
2023/09/21 08:21:05;;;;;;;9.50;2.67;;;20.30;40.40;;;;;;4986154;28;20453;-52
2023/09/21 08:23:32;;;;;;;12.43;2.90;;;20.50;35.90;;;;;;4982571;28;20460;-53
2023/09/21 08:25:59;;;;;;;5.13;3.10;;;20.60;41.10;;;;;;4995123;28;20947;-52
2023/09/21 08:28:26;;;;;;;3.77;2.60;;;20.80;54.60;;;;;;5000186;28;21021;-51
2023/09/21 08:30:54;;;;;;;4.80;3.17;;;20.80;65.90;;;;;;4994209;28;20484;-52
2023/09/21 08:33:22;;;;;;;6.20;2.93;;;21.00;72.50;;;;;;4985973;28;20468;-52
2023/09/21 08:35:50;;;;;;;5.87;2.83;;;21.10;78.60;;;;;;4989944;28;20592;-52
2023/09/21 08:38:17;;;;;;;6.30;2.67;;;21.20;83.60;;;;;;4981068;28;20462;-52
2023/09/21 08:40:46;;;;;;;2.83;2.33;;;21.30;81.30;;;;;;4989185;28;20515;-52
2023/09/21 08:43:20;;;;;;;8.10;2.57;;;21.50;94.30;;;;;;4991664;28;20534;-51
2023/09/21 08:45:49;;;;;;;7.13;2.50;;;21.50;97.10;;;;;;4988989;28;21036;-53
2023/09/21 08:48:18;;;;;;;4.57;2.23;;;21.60;99.90;;;;;;4992097;28;20461;-52
2023/09/21 08:50:45;;;;;;;5.23;2.90;;;21.80;99.90;;;;;;4983599;28;20524;-53
2023/09/21 08:53:18;;;;;;;8.93;2.87;;;22.00;99.90;;;;;;4989588;28;20465;-52
2023/09/21 08:55:48;;;;;;;3.80;2.60;;;22.20;99.90;;;;;;4984374;28;20446;-52
2023/09/21 08:58:21;;;;;;;2.63;2.33;;;22.30;99.90;;;;;;4988109;28;20464;-52
2023/09/21 09:00:48;;;;;;;7.43;3.03;;;22.40;99.90;;;;;;4983931;28;20491;-52
2023/09/21 09:03:19;;;;;;;3.23;2.43;;;22.50;99.90;;;;;;4991972;28;20486;-52
2023/09/21 09:05:46;;;;;;;9.13;2.40;;;22.80;99.90;;;;;;4990901;28;20472;-52
2023/09/21 09:08:14;;;;;;;10.90;3.07;;;22.90;99.90;;;;;;4989795;28;20462;-52
2023/09/21 09:10:41;;;;;;;5.60;2.63;;;23.00;99.90;;;;;;4993389;28;20550;-52
2023/09/21 09:13:08;;;;;;;8.30;2.63;;;23.10;99.90;;;;;;4991859;28;20903;-51
2023/09/21 09:15:37;;;;;;;5.33;2.57;;;23.00;99.90;;;;;;4983057;28;20546;-53
2023/09/21 09:18:04;;;;;;;10.90;2.73;;;23.20;99.90;;;;;;4993624;28;20522;-53
2023/09/21 09:20:32;;;;;;;2.33;2.10;;;23.30;99.90;;;;;;4989257;28;20861;-51
2023/09/21 09:23:01;;;;;;;3.87;2.50;;;23.40;99.90;;;;;;4993809;28;20468;-51
2023/09/21 09:25:29;;;;;;;4.20;2.50;;;23.50;99.90;;;;;;4987121;28;20542;-52
2023/09/21 09:27:56;;;;;;;3.60;3.23;;;23.60;99.90;;;;;;4987034;28;21033;-52
2023/09/21 09:30:24;;;;;;;4.30;2.33;;;23.70;99.90;;;;;;4989021;28;20550;-53
2023/09/21 09:32:54;;;;;;;5.37;2.33;;;23.70;99.90;;;;;;4988286;28;20519;-53
2023/09/21 09:35:22;;;;;;;5.23;2.63;;;24.00;99.90;;;;;;4991589;28;20478;-54
2023/09/21 09:37:48;;;;;;;3.07;2.50;;;24.10;99.90;;;;;;4995216;28;20473;-52
2023/09/21 09:40:23;;;;;;;6.90;3.27;;;24.10;99.90;;;;;;4980981;28;20472;-54
2023/09/21 09:42:52;;;;;;;11.63;2.60;;;24.20;99.90;;;;;;4994968;28;20452;-54
2023/09/21 09:45:24;;;;;;;2.70;2.50;;;24.20;99.90;;;;;;4989279;28;20464;-53
2023/09/21 09:47:56;;;;;;;2.43;2.20;;;24.70;99.90;;;;;;4989611;28;20884;-53
2023/09/21 09:50:24;;;;;;;7.30;2.27;;;24.50;99.90;;;;;;4999592;28;20506;-54
2023/09/21 09:52:57;;;;;;;5.63;2.20;;;25.00;99.90;;;;;;4996616;28;20468;-52
2023/09/21 09:55:31;;;;;;;6.70;2.07;;;24.80;99.90;;;;;;4996974;28;20543;-53
2023/09/21 09:57:59;;;;;;;2.50;2.30;;;25.30;99.90;;;;;;4994930;28;20919;-53
2023/09/21 10:00:27;;;;;;;3.73;2.10;;;26.10;99.90;;;;;;4994047;28;20482;-53
2023/09/21 10:02:55;;;;;;;6.10;2.10;;;26.40;99.90;;;;;;4980897;28;20495;-54
2023/09/21 10:05:23;;;;;;;5.20;2.27;;;25.90;99.90;;;;;;4996285;28;20510;-53
2023/09/21 10:07:51;;;;;;;10.20;1.73;;;25.80;99.90;;;;;;4991746;28;20475;-53
2023/09/21 10:10:20;;;;;;;4.10;2.00;;;25.80;99.90;;;;;;4993527;28;20499;-53
2023/09/21 10:12:49;;;;;;;13.77;2.60;;;26.40;99.90;;;;;;5001455;28;20818;-53
2023/09/21 10:15:17;;;;;;;8.10;2.57;;;26.40;99.90;;;;;;4993988;28;20519;-52
2023/09/21 10:17:45;;;;;;;11.40;2.13;;;26.40;99.90;;;;;;4994860;28;20448;-54
2023/09/21 10:20:15;;;;;;;6.77;2.47;;;26.40;99.90;;;;;;4994660;28;20526;-54
2023/09/21 10:22:44;;;;;;;15.07;2.60;;;26.90;99.90;;;;;;4988881;28;20467;-53
2023/09/21 10:25:11;;;;;;;8.17;2.57;;;26.70;99.90;;;;;;4993374;28;20449;-55
2023/09/21 10:27:39;;;;;;;3.23;2.10;;;26.30;99.90;;;;;;4989392;28;21048;-53
2023/09/21 10:30:09;;;;;;;10.83;1.90;;;26.50;99.90;;;;;;4986323;28;20493;-53
2023/09/21 10:32:45;;;;;;;2.57;2.00;;;26.50;99.90;;;;;;4994267;28;20448;-52
2023/09/21 10:35:21;;;;;;;4.87;2.17;;;26.80;99.90;;;;;;5002197;28;20452;-53
2023/09/21 10:37:50;;;;;;;7.90;2.20;;;26.50;99.90;;;;;;4983982;28;20453;-53
2023/09/21 10:40:20;;;;;;;2.57;2.03;;;27.60;99.90;;;;;;4989144;28;20894;-54
2023/09/21 10:42:46;;;;;;;2.33;1.70;;;28.30;99.90;;;;;;4983618;28;20457;-53
2023/09/21 10:45:13;;;;;;;4.10;1.93;;;29.60;99.90;;;;;;4994296;28;20927;-54
2023/09/21 10:47:51;;;;;;;7.27;2.17;;;28.50;99.90;;;;;;4996232;28;20551;-53
2023/09/21 10:50:20;;;;;;;8.90;2.00;;;28.30;99.90;;;;;;4994041;28;20488;-54
2023/09/21 10:52:48;;;;;;;8.37;2.40;;;27.40;99.90;;;;;;4978571;28;20523;-52
2023/09/21 10:55:16;;;;;;;4.60;2.50;;;26.60;99.90;;;;;;4979185;28;20444;-53
2023/09/21 10:57:44;;;;;;;17.93;2.10;;;26.40;99.90;;;;;;4984754;28;20536;-52
2023/09/21 11:00:16;;;;;;;8.40;1.73;;;26.30;99.90;;;;;;4993422;28;20460;-54
2023/09/21 11:02:46;;;;;;;10.63;2.00;;;26.10;99.90;;;;;;4984453;28;20465;-55
2023/09/21 11:05:16;;;;;;;6.83;2.20;;;26.00;99.90;;;;;;4989790;28;20553;-54
2023/09/21 11:07:44;;;;;;;12.20;2.17;;;25.80;99.90;;;;;;4990201;28;20465;-55
2023/09/21 11:10:11;;;;;;;2.53;1.70;;;25.80;99.90;;;;;;4995453;28;20492;-53
2023/09/21 11:12:40;;;;;;;3.33;1.90;;;25.70;99.90;;;;;;4993623;28;20449;-54
2023/09/21 11:15:09;;;;;;;9.93;1.83;;;25.70;99.90;;;;;;4992659;28;20531;-54
2023/09/21 11:17:35;;;;;;;2.30;2.07;;;25.80;99.90;;;;;;4996208;28;20825;-52
2023/09/21 11:20:04;;;;;;;4.20;2.03;;;25.90;99.90;;;;;;4995080;28;20484;-55
2023/09/21 11:22:33;;;;;;;4.83;1.67;;;25.90;99.90;;;;;;4990957;28;20576;-54
2023/09/21 11:25:00;;;;;;;2.43;2.17;;;25.90;99.90;;;;;;4985806;28;20551;-55
2023/09/21 11:27:28;;;;;;;5.47;2.00;;;26.00;99.90;;;;;;4989534;28;20519;-52
2023/09/21 11:29:55;;;;;;;3.70;1.80;;;25.90;99.90;;;;;;4993121;28;20488;-55
2023/09/21 11:32:23;;;;;;;3.53;1.70;;;26.00;99.90;;;;;;4981699;28;20512;-55
2023/09/21 11:34:57;;;;;;;12.27;2.10;;;26.10;99.90;;;;;;4990088;28;20488;-53
2023/09/21 11:37:26;;;;;;;3.90;1.60;;;26.20;99.90;;;;;;4988315;28;20538;-52
2023/09/21 11:39:55;;;;;;;12.53;2.10;;;26.10;99.90;;;;;;4993667;28;20488;-54
2023/09/21 11:42:24;;;;;;;13.40;1.77;;;26.10;99.90;;;;;;4981037;28;20489;-53
2023/09/21 11:44:51;;;;;;;1.83;1.57;;;26.20;99.90;;;;;;4998242;28;20543;-53
2023/09/21 11:47:18;;;;;;;4.00;1.70;;;26.30;99.90;;;;;;4984780;28;20519;-55
2023/09/21 11:49:45;;;;;;;14.50;2.03;;;26.20;99.90;;;;;;4986069;28;20916;-53
2023/09/21 11:52:13;;;;;;;3.00;1.97;;;26.30;99.90;;;;;;4980223;28;20463;-53
2023/09/21 11:54:40;;;;;;;7.00;2.47;;;26.40;99.90;;;;;;4993525;28;20464;-54
2023/09/21 11:57:11;;;;;;;3.60;2.00;;;26.40;99.90;;;;;;4991733;28;20445;-53
2023/09/21 11:59:42;;;;;;;5.53;1.80;;;26.30;99.90;;;;;;4979325;28;20476;-53
2023/09/21 12:02:09;;;;;;;3.67;1.60;;;26.40;99.90;;;;;;4992359;28;20464;-53
2023/09/21 12:04:41;;;;;;;5.53;2.27;;;26.50;99.90;;;;;;4984419;28;21275;-56
2023/09/21 12:07:08;;;;;;;9.53;2.17;;;26.70;99.90;;;;;;4988804;28;20471;-53
2023/09/21 12:09:40;;;;;;;1.57;1.47;;;26.70;99.90;;;;;;4991728;28;20461;-53
2023/09/21 12:12:09;;;;;;;4.63;2.30;;;26.90;99.90;;;;;;4992117;28;20476;-54
2023/09/21 12:14:36;;;;;;;4.50;1.70;;;27.30;99.90;;;;;;4995453;28;20970;-53
2023/09/21 12:17:09;;;;;;;2.27;1.70;;;27.30;99.90;;;;;;4989225;28;20461;-53
2023/09/21 12:19:37;;;;;;;2.77;1.97;;;27.60;99.90;;;;;;4985325;28;20488;-55
2023/09/21 12:22:05;;;;;;;2.83;1.90;;;27.40;99.90;;;;;;4990023;28;20488;-52
2023/09/21 12:24:32;;;;;;;1.73;1.63;;;28.00;99.90;;;;;;4989042;28;20461;-52
2023/09/21 12:26:59;;;;;;;2.03;1.40;;;28.30;99.90;;;;;;4990913;28;20450;-51
2023/09/21 12:29:27;;;;;;;3.70;2.30;;;29.40;99.90;;;;;;4988252;28;20520;-53
2023/09/21 12:31:54;;;;;;;8.13;1.37;;;29.20;99.90;;;;;;4990901;28;20484;-53
2023/09/21 12:34:21;;;;;;;2.03;1.70;;;29.00;99.90;;;;;;4996368;28;20461;-53
2023/09/21 12:36:49;;;;;;;3.83;1.60;;;29.40;99.90;;;;;;4993208;28;20518;-51
2023/09/21 12:39:16;;;;;;;6.00;1.27;;;30.70;99.90;;;;;;4995307;28;20575;-52
2023/09/21 12:41:43;;;;;;;1.97;1.47;;;30.30;99.90;;;;;;4988807;28;20456;-52
2023/09/21 12:44:11;;;;;;;3.73;2.17;;;30.90;99.90;;;;;;4977815;28;20473;-52
2023/09/21 12:46:39;;;;;;;5.30;1.50;;;30.10;99.90;;;;;;4980948;28;20456;-52
2023/09/21 12:49:06;;;;;;;3.03;1.93;;;29.30;99.90;;;;;;4991197;28;20518;-53